LEABLEGR

Guest
Details From LEAB - Albacete
To LEGR - Granada
Flight Number -
Tags generated
Created
Modified
Stats Distance 139 nm / 258 km
Max Altitude 9,200 ft / 2,804 m
Waypoints 3
Social Downloads 0
Likes 0
Share VATSIM

Download

Looking for another format? Having issues loading an existing format? Contact us
Advertisement - Login to hide

Notes

Basic altitude profile: - Ascent Rate: 2500ft/min - Ascent Speed: 250kts - Cruise Altitude: 35000ft - Cruise Speed: 420kts - Descent Rate: 1500ft/min - Descent Speed: 250kts Options: - Use NATs: yes - Use PACOTS: yes - Use low airways: yes - Use high airways: yes

Route

LEAB BAZAS LEGR

ID Type Via Altitude Latitude Longitude Leg Dist Tot Dist Heading (true) Name
O LEAB APT - 0 ft / 0 m 38.94853˚ -1.86350˚ - 0 nm - Albacete
BAZAS FIX - 9,200 ft / 2,804 m 37.73441˚ -3.18521˚ 95 nm 95 nm 221° / 220° -
O LEGR APT - 0 ft / 0 m 37.18873˚ -3.77736˚ 43 nm 139 nm 221° / 221° Granada

Altitude Profile

Advertisement - Login to hide

LEAB

Details ICAO LEAB
Name Albacete
Region Spain
Timezone Europe/Madrid (UTC+1.0)
Stats Elevation 2,301 ft / 701 m (AMSL)
Location 38.948527° -1.863500°
Runways 1
Magnetic Variation 0.169° W

METAR

LEAB 140200Z 32004KT 9999 SCT024 04/M01 Q1025 NOSIG

Decode

TAF

Not found

Departure Runways

ID Width Length Bearing (true) Bearing (mag) Surface Threshold Offset Overrun Length
09 197 ft / 60 m 8,839 ft / 2,694 m 87.36° 87.53° Asphalt 0 ft / 0 m 1,247 ft / 380 m
27 197 ft / 60 m 8,839 ft / 2,694 m 267.38° 267.55° Asphalt 0 ft / 0 m 1,247 ft / 380 m

LEGR

Details ICAO LEGR (GRX)
Name Granada
Region Spain
Timezone Europe/Madrid (UTC+1.0)
Stats Elevation 1,859 ft / 567 m (AMSL)
Location 37.188731° -3.777359°
Runways 1
Magnetic Variation 0.677° W

METAR

LEGR 140230Z AUTO VRB01KT 9999 NCD M01/M02 Q1027

Decode

TAF

TAF LEGR 140200Z 1403/1503 VRB02KT CAVOK TX15/1415Z TNM02/1407Z

Decode

Destination Runways

ID Width Length Bearing (true) Bearing (mag) Surface Threshold Offset Overrun Length
09 147 ft / 45 m 9,511 ft / 2,899 m 89.46° 90.14° Asphalt 0 ft / 0 m 0 ft / 0 m
27 147 ft / 45 m 9,511 ft / 2,899 m 269.48° 270.16° Asphalt 0 ft / 0 m 0 ft / 0 m

Approach Navaids

Runway Type Ident Frequency Range Bearing (true) Bearing (mag) Slope Elevation
09 Localiser GRD 109.30 MHz 18 nm / 33 km 89.49° 90.16° - 1,859 ft / 567 m (AMSL)
09 Glidescope GRD 109.30 MHz 10 nm / 19 km 89.47° 90.15° 3.00° 1,859 ft / 567 m (AMSL)

Popular Alternatives